sensor_id;sensor_type;location;lat;lon;timestamp;temperature;humidity
21244;DHT22;10780;50.942;4.028;2022-10-16T00:00:33;13.80;99.90
21244;DHT22;10780;50.942;4.028;2022-10-16T00:02:59;13.80;99.90
21244;DHT22;10780;50.942;4.028;2022-10-16T00:05:24;13.90;99.90
21244;DHT22;10780;50.942;4.028;2022-10-16T00:07:50;13.90;99.90
21244;DHT22;10780;50.942;4.028;2022-10-16T00:10:16;13.80;99.90
21244;DHT22;10780;50.942;4.028;2022-10-16T00:12:41;13.90;99.90
21244;DHT22;10780;50.942;4.028;2022-10-16T00:15:07;13.80;99.90
21244;DHT22;10780;50.942;4.028;2022-10-16T00:17:33;13.90;99.90
21244;DHT22;10780;50.942;4.028;2022-10-16T00:19:59;14.00;99.90
21244;DHT22;10780;50.942;4.028;2022-10-16T00:22:24;13.90;99.90
21244;DHT22;10780;50.942;4.028;2022-10-16T00:24:50;13.80;99.90
21244;DHT22;10780;50.942;4.028;2022-10-16T00:27:16;13.70;99.90
21244;DHT22;10780;50.942;4.028;2022-10-16T00:29:42;13.70;99.90
21244;DHT22;10780;50.942;4.028;2022-10-16T00:32:08;13.70;99.90
21244;DHT22;10780;50.942;4.028;2022-10-16T00:34:33;13.70;99.90
21244;DHT22;10780;50.942;4.028;2022-10-16T00:36:59;13.70;99.90
21244;DHT22;10780;50.942;4.028;2022-10-16T00:39:24;13.70;99.90
21244;DHT22;10780;50.942;4.028;2022-10-16T00:41:50;13.60;99.90
21244;DHT22;10780;50.942;4.028;2022-10-16T00:47:21;13.50;99.90
21244;DHT22;10780;50.942;4.028;2022-10-16T00:49:50;13.60;99.90
21244;DHT22;10780;50.942;4.028;2022-10-16T00:52:17;13.60;99.90
21244;DHT22;10780;50.942;4.028;2022-10-16T00:54:43;13.60;99.90
21244;DHT22;10780;50.942;4.028;2022-10-16T00:57:09;13.60;99.90
21244;DHT22;10780;50.942;4.028;2022-10-16T00:59:38;13.60;99.90
21244;DHT22;10780;50.942;4.028;2022-10-16T01:02:07;13.50;99.90
21244;DHT22;10780;50.942;4.028;2022-10-16T01:04:41;13.50;99.90
21244;DHT22;10780;50.942;4.028;2022-10-16T01:15:52;13.60;99.90
21244;DHT22;10780;50.942;4.028;2022-10-16T01:24:09;13.80;99.90
21244;DHT22;10780;50.942;4.028;2022-10-16T01:29:20;13.70;99.90
21244;DHT22;10780;50.942;4.028;2022-10-16T01:31:54;13.60;99.90
21244;DHT22;10780;50.942;4.028;2022-10-16T01:34:28;13.60;99.90
21244;DHT22;10780;50.942;4.028;2022-10-16T01:37:12;13.50;99.90
21244;DHT22;10780;50.942;4.028;2022-10-16T01:39:39;13.40;99.90
21244;DHT22;10780;50.942;4.028;2022-10-16T01:42:23;13.40;99.90
21244;DHT22;10780;50.942;4.028;2022-10-16T01:44:51;13.30;99.90
21244;DHT22;10780;50.942;4.028;2022-10-16T01:47:21;13.30;99.90
21244;DHT22;10780;50.942;4.028;2022-10-16T01:49:48;13.30;99.90
21244;DHT22;10780;50.942;4.028;2022-10-16T01:52:17;13.40;99.90
21244;DHT22;10780;50.942;4.028;2022-10-16T01:54:47;13.50;99.90
21244;DHT22;10780;50.942;4.028;2022-10-16T01:57:14;13.40;99.90
21244;DHT22;10780;50.942;4.028;2022-10-16T01:59:47;13.30;99.90
21244;DHT22;10780;50.942;4.028;2022-10-16T02:02:15;13.40;99.90
21244;DHT22;10780;50.942;4.028;2022-10-16T02:04:46;13.30;99.90
21244;DHT22;10780;50.942;4.028;2022-10-16T02:07:13;13.30;99.90
21244;DHT22;10780;50.942;4.028;2022-10-16T02:09:40;13.30;99.90
21244;DHT22;10780;50.942;4.028;2022-10-16T02:12:25;13.30;99.90
21244;DHT22;10780;50.942;4.028;2022-10-16T02:14:52;13.30;99.90
21244;DHT22;10780;50.942;4.028;2022-10-16T02:17:19;13.30;99.90
21244;DHT22;10780;50.942;4.028;2022-10-16T02:19:46;13.40;99.90
21244;DHT22;10780;50.942;4.028;2022-10-16T02:24:58;13.50;99.90
21244;DHT22;10780;50.942;4.028;2022-10-16T02:32:45;13.50;99.90
21244;DHT22;10780;50.942;4.028;2022-10-16T02:35:12;13.40;99.90
21244;DHT22;10780;50.942;4.028;2022-10-16T02:37:39;13.40;99.90
21244;DHT22;10780;50.942;4.028;2022-10-16T02:40:06;13.50;99.90
21244;DHT22;10780;50.942;4.028;2022-10-16T02:42:37;13.50;99.90
21244;DHT22;10780;50.942;4.028;2022-10-16T02:45:04;13.60;99.90
21244;DHT22;10780;50.942;4.028;2022-10-16T02:47:30;13.40;99.90
21244;DHT22;10780;50.942;4.028;2022-10-16T02:49:56;13.30;99.90
21244;DHT22;10780;50.942;4.028;2022-10-16T02:52:21;13.40;99.90
21244;DHT22;10780;50.942;4.028;2022-10-16T02:54:47;13.40;99.90
21244;DHT22;10780;50.942;4.028;2022-10-16T02:57:13;13.40;99.90
21244;DHT22;10780;50.942;4.028;2022-10-16T02:59:38;13.30;99.90
21244;DHT22;10780;50.942;4.028;2022-10-16T03:02:04;13.40;99.90
21244;DHT22;10780;50.942;4.028;2022-10-16T03:04:29;13.30;99.90
21244;DHT22;10780;50.942;4.028;2022-10-16T03:06:55;13.30;99.90
21244;DHT22;10780;50.942;4.028;2022-10-16T03:09:21;13.50;99.90
21244;DHT22;10780;50.942;4.028;2022-10-16T03:11:46;13.30;99.90
21244;DHT22;10780;50.942;4.028;2022-10-16T03:14:12;13.40;99.90
21244;DHT22;10780;50.942;4.028;2022-10-16T03:16:38;13.40;99.90
21244;DHT22;10780;50.942;4.028;2022-10-16T03:19:03;13.40;99.90
21244;DHT22;10780;50.942;4.028;2022-10-16T03:21:29;13.30;99.90
21244;DHT22;10780;50.942;4.028;2022-10-16T03:23:55;13.30;99.90
21244;DHT22;10780;50.942;4.028;2022-10-16T03:26:20;13.30;99.90
21244;DHT22;10780;50.942;4.028;2022-10-16T03:28:46;13.40;99.90
21244;DHT22;10780;50.942;4.028;2022-10-16T03:31:11;13.50;99.90
21244;DHT22;10780;50.942;4.028;2022-10-16T03:33:37;13.50;99.90
21244;DHT22;10780;50.942;4.028;2022-10-16T03:36:02;13.50;99.90
21244;DHT22;10780;50.942;4.028;2022-10-16T03:38:28;13.50;99.90
21244;DHT22;10780;50.942;4.028;2022-10-16T03:40:54;13.50;99.90
21244;DHT22;10780;50.942;4.028;2022-10-16T03:43:19;13.40;99.90
21244;DHT22;10780;50.942;4.028;2022-10-16T03:45:53;13.40;99.90
21244;DHT22;10780;50.942;4.028;2022-10-16T03:48:19;13.40;99.90
21244;DHT22;10780;50.942;4.028;2022-10-16T03:50:45;13.30;99.90
21244;DHT22;10780;50.942;4.028;2022-10-16T03:53:13;13.30;99.90
21244;DHT22;10780;50.942;4.028;2022-10-16T03:55:41;13.40;99.90
21244;DHT22;10780;50.942;4.028;2022-10-16T03:58:07;13.40;99.90
21244;DHT22;10780;50.942;4.028;2022-10-16T04:00:32;13.40;99.90
21244;DHT22;10780;50.942;4.028;2022-10-16T04:02:58;13.40;99.90
21244;DHT22;10780;50.942;4.028;2022-10-16T04:05:24;13.40;99.90
21244;DHT22;10780;50.942;4.028;2022-10-16T04:07:49;13.30;99.90
21244;DHT22;10780;50.942;4.028;2022-10-16T04:10:15;13.20;99.90
21244;DHT22;10780;50.942;4.028;2022-10-16T04:12:40;13.20;99.90
21244;DHT22;10780;50.942;4.028;2022-10-16T04:15:06;13.20;99.90
21244;DHT22;10780;50.942;4.028;2022-10-16T04:17:32;13.10;99.90
21244;DHT22;10780;50.942;4.028;2022-10-16T04:19:57;13.10;99.90
21244;DHT22;10780;50.942;4.028;2022-10-16T04:22:23;13.10;99.90
21244;DHT22;10780;50.942;4.028;2022-10-16T04:24:49;13.10;99.90
21244;DHT22;10780;50.942;4.028;2022-10-16T04:27:14;13.10;99.90
21244;DHT22;10780;50.942;4.028;2022-10-16T04:29:40;13.10;99.90
21244;DHT22;10780;50.942;4.028;2022-10-16T04:32:11;13.10;99.90
21244;DHT22;10780;50.942;4.028;2022-10-16T04:34:38;13.10;99.90
21244;DHT22;10780;50.942;4.028;2022-10-16T04:37:04;13.10;99.90
21244;DHT22;10780;50.942;4.028;2022-10-16T04:39:30;13.10;99.90
21244;DHT22;10780;50.942;4.028;2022-10-16T04:41:55;13.20;99.90
21244;DHT22;10780;50.942;4.028;2022-10-16T04:44:21;13.30;99.90
21244;DHT22;10780;50.942;4.028;2022-10-16T04:46:47;13.30;99.90
21244;DHT22;10780;50.942;4.028;2022-10-16T04:49:12;13.20;99.90
21244;DHT22;10780;50.942;4.028;2022-10-16T04:51:38;13.10;99.90
21244;DHT22;10780;50.942;4.028;2022-10-16T04:54:03;13.00;99.90
21244;DHT22;10780;50.942;4.028;2022-10-16T04:56:29;13.00;99.90
21244;DHT22;10780;50.942;4.028;2022-10-16T04:58:54;13.00;99.90
21244;DHT22;10780;50.942;4.028;2022-10-16T05:01:20;13.00;99.90
21244;DHT22;10780;50.942;4.028;2022-10-16T05:03:45;13.00;99.90
21244;DHT22;10780;50.942;4.028;2022-10-16T05:06:11;13.00;99.90
21244;DHT22;10780;50.942;4.028;2022-10-16T05:08:37;12.90;99.90
21244;DHT22;10780;50.942;4.028;2022-10-16T05:11:02;12.80;99.90
21244;DHT22;10780;50.942;4.028;2022-10-16T05:13:28;12.80;99.90
21244;DHT22;10780;50.942;4.028;2022-10-16T05:15:54;12.90;99.90
21244;DHT22;10780;50.942;4.028;2022-10-16T05:18:19;12.80;99.90
21244;DHT22;10780;50.942;4.028;2022-10-16T05:20:45;12.90;99.90
21244;DHT22;10780;50.942;4.028;2022-10-16T05:23:11;12.90;99.90
21244;DHT22;10780;50.942;4.028;2022-10-16T05:25:37;13.10;99.90
21244;DHT22;10780;50.942;4.028;2022-10-16T05:28:03;13.10;99.90
21244;DHT22;10780;50.942;4.028;2022-10-16T05:30:28;13.00;99.90
21244;DHT22;10780;50.942;4.028;2022-10-16T05:32:54;13.00;99.90
21244;DHT22;10780;50.942;4.028;2022-10-16T05:35:20;12.90;99.90
21244;DHT22;10780;50.942;4.028;2022-10-16T05:37:46;12.90;99.90
21244;DHT22;10780;50.942;4.028;2022-10-16T05:40:12;13.00;99.90
21244;DHT22;10780;50.942;4.028;2022-10-16T05:42:38;13.10;99.90
21244;DHT22;10780;50.942;4.028;2022-10-16T05:45:05;13.00;99.90
21244;DHT22;10780;50.942;4.028;2022-10-16T05:47:31;13.10;99.90
21244;DHT22;10780;50.942;4.028;2022-10-16T05:49:57;13.30;99.90
21244;DHT22;10780;50.942;4.028;2022-10-16T05:52:23;13.30;99.90
21244;DHT22;10780;50.942;4.028;2022-10-16T05:54:48;13.30;99.90
21244;DHT22;10780;50.942;4.028;2022-10-16T05:57:15;13.40;99.90
21244;DHT22;10780;50.942;4.028;2022-10-16T05:59:40;13.60;99.90
21244;DHT22;10780;50.942;4.028;2022-10-16T06:02:11;13.70;99.90
21244;DHT22;10780;50.942;4.028;2022-10-16T06:04:37;13.70;99.90
21244;DHT22;10780;50.942;4.028;2022-10-16T06:07:03;13.70;99.90
21244;DHT22;10780;50.942;4.028;2022-10-16T06:09:28;13.70;99.90
21244;DHT22;10780;50.942;4.028;2022-10-16T06:11:54;13.70;99.90
21244;DHT22;10780;50.942;4.028;2022-10-16T06:14:20;13.70;99.90
21244;DHT22;10780;50.942;4.028;2022-10-16T06:16:45;13.70;99.90
21244;DHT22;10780;50.942;4.028;2022-10-16T06:19:11;13.60;99.90
21244;DHT22;10780;50.942;4.028;2022-10-16T06:21:37;13.60;99.90
21244;DHT22;10780;50.942;4.028;2022-10-16T06:24:02;13.60;99.90
21244;DHT22;10780;50.942;4.028;2022-10-16T06:26:30;13.70;99.90
21244;DHT22;10780;50.942;4.028;2022-10-16T06:28:57;13.60;99.90
21244;DHT22;10780;50.942;4.028;2022-10-16T06:31:24;13.70;99.90
21244;DHT22;10780;50.942;4.028;2022-10-16T06:33:53;13.60;99.90
21244;DHT22;10780;50.942;4.028;2022-10-16T06:36:19;13.50;99.90
21244;DHT22;10780;50.942;4.028;2022-10-16T06:38:45;13.50;99.90
21244;DHT22;10780;50.942;4.028;2022-10-16T06:41:16;13.50;99.90
21244;DHT22;10780;50.942;4.028;2022-10-16T06:43:42;13.50;99.90
21244;DHT22;10780;50.942;4.028;2022-10-16T06:46:11;13.60;99.90
21244;DHT22;10780;50.942;4.028;2022-10-16T06:48:38;13.60;99.90
21244;DHT22;10780;50.942;4.028;2022-10-16T06:51:10;13.40;99.90
21244;DHT22;10780;50.942;4.028;2022-10-16T06:53:39;13.50;99.90
21244;DHT22;10780;50.942;4.028;2022-10-16T06:56:10;13.40;99.90
21244;DHT22;10780;50.942;4.028;2022-10-16T06:58:36;13.40;99.90
21244;DHT22;10780;50.942;4.028;2022-10-16T07:01:02;13.30;99.90
21244;DHT22;10780;50.942;4.028;2022-10-16T07:03:27;13.30;99.90
21244;DHT22;10780;50.942;4.028;2022-10-16T07:05:53;13.30;99.90
21244;DHT22;10780;50.942;4.028;2022-10-16T07:08:18;13.40;99.90
21244;DHT22;10780;50.942;4.028;2022-10-16T07:10:44;13.50;99.90
21244;DHT22;10780;50.942;4.028;2022-10-16T07:13:10;13.60;99.90
21244;DHT22;10780;50.942;4.028;2022-10-16T07:15:38;13.60;99.90
21244;DHT22;10780;50.942;4.028;2022-10-16T07:18:04;13.70;99.90
21244;DHT22;10780;50.942;4.028;2022-10-16T07:20:29;13.80;99.90
21244;DHT22;10780;50.942;4.028;2022-10-16T07:22:55;14.00;99.90
21244;DHT22;10780;50.942;4.028;2022-10-16T07:25:20;14.00;99.90
21244;DHT22;10780;50.942;4.028;2022-10-16T07:27:46;14.00;99.90
21244;DHT22;10780;50.942;4.028;2022-10-16T07:30:12;14.10;99.90
21244;DHT22;10780;50.942;4.028;2022-10-16T07:32:37;14.10;99.90
21244;DHT22;10780;50.942;4.028;2022-10-16T07:35:03;14.20;99.90
21244;DHT22;10780;50.942;4.028;2022-10-16T07:37:29;14.30;99.90
21244;DHT22;10780;50.942;4.028;2022-10-16T07:39:55;14.50;99.90
21244;DHT22;10780;50.942;4.028;2022-10-16T07:42:20;14.50;99.90
21244;DHT22;10780;50.942;4.028;2022-10-16T07:44:46;14.60;99.90
21244;DHT22;10780;50.942;4.028;2022-10-16T07:47:11;14.60;99.90
21244;DHT22;10780;50.942;4.028;2022-10-16T07:49:37;14.60;99.90
21244;DHT22;10780;50.942;4.028;2022-10-16T07:52:03;14.60;99.90
21244;DHT22;10780;50.942;4.028;2022-10-16T07:54:28;14.50;99.90
21244;DHT22;10780;50.942;4.028;2022-10-16T07:56:54;14.60;99.90
21244;DHT22;10780;50.942;4.028;2022-10-16T07:59:20;14.70;99.90
21244;DHT22;10780;50.942;4.028;2022-10-16T08:01:46;14.70;99.90
21244;DHT22;10780;50.942;4.028;2022-10-16T08:04:11;14.70;99.90
21244;DHT22;10780;50.942;4.028;2022-10-16T08:06:38;14.80;99.90
21244;DHT22;10780;50.942;4.028;2022-10-16T08:09:05;14.90;99.90
21244;DHT22;10780;50.942;4.028;2022-10-16T08:11:31;14.90;99.90
21244;DHT22;10780;50.942;4.028;2022-10-16T08:13:56;15.00;99.90
21244;DHT22;10780;50.942;4.028;2022-10-16T08:16:22;15.10;99.90
21244;DHT22;10780;50.942;4.028;2022-10-16T08:18:48;15.10;99.90
21244;DHT22;10780;50.942;4.028;2022-10-16T08:21:16;15.10;99.90
21244;DHT22;10780;50.942;4.028;2022-10-16T08:23:42;15.00;99.90
21244;DHT22;10780;50.942;4.028;2022-10-16T08:26:09;15.00;99.90
21244;DHT22;10780;50.942;4.028;2022-10-16T08:28:35;15.10;99.90
21244;DHT22;10780;50.942;4.028;2022-10-16T08:31:13;15.20;99.90
21244;DHT22;10780;50.942;4.028;2022-10-16T08:33:41;15.30;99.90
21244;DHT22;10780;50.942;4.028;2022-10-16T08:36:07;15.30;99.90
21244;DHT22;10780;50.942;4.028;2022-10-16T08:38:33;15.30;99.90
21244;DHT22;10780;50.942;4.028;2022-10-16T08:44:28;15.30;99.90
21244;DHT22;10780;50.942;4.028;2022-10-16T08:47:06;15.40;99.90
21244;DHT22;10780;50.942;4.028;2022-10-16T08:49:37;15.40;99.90
21244;DHT22;10780;50.942;4.028;2022-10-16T08:52:11;15.50;99.90
21244;DHT22;10780;50.942;4.028;2022-10-16T08:54:44;15.60;99.90
21244;DHT22;10780;50.942;4.028;2022-10-16T08:57:21;15.70;99.90
21244;DHT22;10780;50.942;4.028;2022-10-16T08:59:47;15.60;99.90
21244;DHT22;10780;50.942;4.028;2022-10-16T09:02:37;15.70;99.90
21244;DHT22;10780;50.942;4.028;2022-10-16T09:16:27;16.20;99.90
21244;DHT22;10780;50.942;4.028;2022-10-16T09:21:41;16.00;99.90
21244;DHT22;10780;50.942;4.028;2022-10-16T09:24:17;16.10;99.90
21244;DHT22;10780;50.942;4.028;2022-10-16T09:26:44;16.10;99.90
21244;DHT22;10780;50.942;4.028;2022-10-16T09:29:14;16.20;99.90
21244;DHT22;10780;50.942;4.028;2022-10-16T09:31:41;16.30;99.90
21244;DHT22;10780;50.942;4.028;2022-10-16T09:34:17;16.30;99.90
21244;DHT22;10780;50.942;4.028;2022-10-16T09:36:46;16.40;99.90
21244;DHT22;10780;50.942;4.028;2022-10-16T09:39:12;16.40;99.90
21244;DHT22;10780;50.942;4.028;2022-10-16T09:41:40;16.40;99.90
21244;DHT22;10780;50.942;4.028;2022-10-16T09:44:27;16.40;99.90
21244;DHT22;10780;50.942;4.028;2022-10-16T09:47:14;16.40;99.90
21244;DHT22;10780;50.942;4.028;2022-10-16T09:49:56;16.50;99.90
21244;DHT22;10780;50.942;4.028;2022-10-16T09:52:23;16.70;99.90
21244;DHT22;10780;50.942;4.028;2022-10-16T09:57:23;16.70;99.90
21244;DHT22;10780;50.942;4.028;2022-10-16T09:59:51;16.70;99.90
21244;DHT22;10780;50.942;4.028;2022-10-16T10:02:19;16.80;99.90
21244;DHT22;10780;50.942;4.028;2022-10-16T10:04:53;16.80;99.90
21244;DHT22;10780;50.942;4.028;2022-10-16T10:07:24;16.90;99.90
21244;DHT22;10780;50.942;4.028;2022-10-16T10:09:54;16.90;99.90
21244;DHT22;10780;50.942;4.028;2022-10-16T10:12:24;16.80;99.90
21244;DHT22;10780;50.942;4.028;2022-10-16T10:14:52;16.90;99.90
21244;DHT22;10780;50.942;4.028;2022-10-16T10:17:23;17.00;99.90
21244;DHT22;10780;50.942;4.028;2022-10-16T10:19:55;17.20;99.90
21244;DHT22;10780;50.942;4.028;2022-10-16T10:22:31;17.40;99.90
21244;DHT22;10780;50.942;4.028;2022-10-16T10:33:18;18.30;99.90
21244;DHT22;10780;50.942;4.028;2022-10-16T10:46:56;18.10;99.90
21244;DHT22;10780;50.942;4.028;2022-10-16T10:55:19;18.60;99.90
21244;DHT22;10780;50.942;4.028;2022-10-16T11:06:19;18.70;99.90
21244;DHT22;10780;50.942;4.028;2022-10-16T11:09:20;18.80;99.90
21244;DHT22;10780;50.942;4.028;2022-10-16T11:11:52;18.70;99.90
21244;DHT22;10780;50.942;4.028;2022-10-16T11:14:24;18.50;99.90
21244;DHT22;10780;50.942;4.028;2022-10-16T11:23:08;18.70;99.90
21244;DHT22;10780;50.942;4.028;2022-10-16T11:25:36;18.80;99.90
21244;DHT22;10780;50.942;4.028;2022-10-16T11:28:35;18.90;99.90
21244;DHT22;10780;50.942;4.028;2022-10-16T11:31:23;18.90;99.90
21244;DHT22;10780;50.942;4.028;2022-10-16T11:36:45;18.50;99.90
21244;DHT22;10780;50.942;4.028;2022-10-16T11:39:27;18.60;99.90
21244;DHT22;10780;50.942;4.028;2022-10-16T11:42:11;19.10;99.90
21244;DHT22;10780;50.942;4.028;2022-10-16T11:44:56;19.40;99.90
21244;DHT22;10780;50.942;4.028;2022-10-16T11:47:40;19.50;99.90
21244;DHT22;10780;50.942;4.028;2022-10-16T11:50:27;19.50;99.90
21244;DHT22;10780;50.942;4.028;2022-10-16T11:55:37;19.50;99.90
21244;DHT22;10780;50.942;4.028;2022-10-16T12:00:47;19.60;99.90
21244;DHT22;10780;50.942;4.028;2022-10-16T12:03:35;19.60;99.90
21244;DHT22;10780;50.942;4.028;2022-10-16T12:06:22;19.80;99.90
21244;DHT22;10780;50.942;4.028;2022-10-16T12:08:53;20.00;99.90
21244;DHT22;10780;50.942;4.028;2022-10-16T12:11:24;20.00;99.90
21244;DHT22;10780;50.942;4.028;2022-10-16T12:13:49;20.20;99.90
21244;DHT22;10780;50.942;4.028;2022-10-16T12:18:42;20.40;99.90
21244;DHT22;10780;50.942;4.028;2022-10-16T12:21:10;20.50;99.90
21244;DHT22;10780;50.942;4.028;2022-10-16T12:23:56;20.70;99.90
21244;DHT22;10780;50.942;4.028;2022-10-16T12:26:31;20.80;99.90
21244;DHT22;10780;50.942;4.028;2022-10-16T12:29:35;21.00;99.90
21244;DHT22;10780;50.942;4.028;2022-10-16T12:31:59;21.00;99.90
21244;DHT22;10780;50.942;4.028;2022-10-16T12:34:37;21.10;99.90
21244;DHT22;10780;50.942;4.028;2022-10-16T12:37:22;20.90;99.90
21244;DHT22;10780;50.942;4.028;2022-10-16T12:39:49;20.80;99.90
21244;DHT22;10780;50.942;4.028;2022-10-16T12:42:22;20.70;99.90
21244;DHT22;10780;50.942;4.028;2022-10-16T12:44:48;20.70;99.90
21244;DHT22;10780;50.942;4.028;2022-10-16T12:47:36;20.30;99.90
21244;DHT22;10780;50.942;4.028;2022-10-16T12:50:05;20.10;99.90
21244;DHT22;10780;50.942;4.028;2022-10-16T12:52:48;20.40;99.90
21244;DHT22;10780;50.942;4.028;2022-10-16T12:55:19;20.60;99.90
21244;DHT22;10780;50.942;4.028;2022-10-16T13:00:37;21.10;99.90
21244;DHT22;10780;50.942;4.028;2022-10-16T13:14:29;21.70;99.90
21244;DHT22;10780;50.942;4.028;2022-10-16T13:25:02;21.00;99.90
21244;DHT22;10780;50.942;4.028;2022-10-16T13:27:40;21.30;99.90
21244;DHT22;10780;50.942;4.028;2022-10-16T13:30:19;21.60;99.90
21244;DHT22;10780;50.942;4.028;2022-10-16T13:32:51;21.90;99.90
21244;DHT22;10780;50.942;4.028;2022-10-16T13:35:25;22.00;99.90
21244;DHT22;10780;50.942;4.028;2022-10-16T13:37:51;22.20;99.90
21244;DHT22;10780;50.942;4.028;2022-10-16T13:40:24;22.20;99.90
21244;DHT22;10780;50.942;4.028;2022-10-16T13:42:51;21.70;99.90
21244;DHT22;10780;50.942;4.028;2022-10-16T13:45:23;22.00;99.90
21244;DHT22;10780;50.942;4.028;2022-10-16T13:47:49;22.00;99.90
21244;DHT22;10780;50.942;4.028;2022-10-16T13:50:17;21.90;99.90
21244;DHT22;10780;50.942;4.028;2022-10-16T13:52:43;21.70;99.90
21244;DHT22;10780;50.942;4.028;2022-10-16T13:55:14;21.80;99.90
21244;DHT22;10780;50.942;4.028;2022-10-16T13:57:40;22.00;99.90
21244;DHT22;10780;50.942;4.028;2022-10-16T14:00:26;22.10;99.90
21244;DHT22;10780;50.942;4.028;2022-10-16T14:03:11;21.90;99.90
21244;DHT22;10780;50.942;4.028;2022-10-16T14:05:47;21.90;99.90
21244;DHT22;10780;50.942;4.028;2022-10-16T14:08:13;21.90;99.90
21244;DHT22;10780;50.942;4.028;2022-10-16T14:10:39;21.80;99.90
21244;DHT22;10780;50.942;4.028;2022-10-16T14:13:06;22.00;99.90
21244;DHT22;10780;50.942;4.028;2022-10-16T14:15:34;21.90;99.90
21244;DHT22;10780;50.942;4.028;2022-10-16T14:18:00;22.10;99.90
21244;DHT22;10780;50.942;4.028;2022-10-16T14:20:29;22.20;99.90
21244;DHT22;10780;50.942;4.028;2022-10-16T14:23:05;22.10;99.90
21244;DHT22;10780;50.942;4.028;2022-10-16T14:25:43;22.40;99.90
21244;DHT22;10780;50.942;4.028;2022-10-16T14:33:39;21.90;99.90
21244;DHT22;10780;50.942;4.028;2022-10-16T14:36:14;21.90;99.90
21244;DHT22;10780;50.942;4.028;2022-10-16T14:38:42;21.70;99.90
21244;DHT22;10780;50.942;4.028;2022-10-16T14:41:09;21.70;99.90
21244;DHT22;10780;50.942;4.028;2022-10-16T14:43:41;21.70;99.90
21244;DHT22;10780;50.942;4.028;2022-10-16T14:46:13;21.50;99.90
21244;DHT22;10780;50.942;4.028;2022-10-16T14:51:34;21.60;99.90
21244;DHT22;10780;50.942;4.028;2022-10-16T14:54:00;21.40;99.90
21244;DHT22;10780;50.942;4.028;2022-10-16T14:56:31;21.10;99.90
21244;DHT22;10780;50.942;4.028;2022-10-16T14:58:59;21.10;99.90
21244;DHT22;10780;50.942;4.028;2022-10-16T15:01:25;21.20;99.90
21244;DHT22;10780;50.942;4.028;2022-10-16T15:03:51;21.30;99.90
21244;DHT22;10780;50.942;4.028;2022-10-16T15:06:17;21.40;99.90
21244;DHT22;10780;50.942;4.028;2022-10-16T15:08:43;21.40;99.90
21244;DHT22;10780;50.942;4.028;2022-10-16T15:11:15;21.30;99.90
21244;DHT22;10780;50.942;4.028;2022-10-16T15:13:41;21.40;99.90
21244;DHT22;10780;50.942;4.028;2022-10-16T15:16:15;21.40;99.90
21244;DHT22;10780;50.942;4.028;2022-10-16T15:18:42;21.30;99.90
21244;DHT22;10780;50.942;4.028;2022-10-16T15:21:08;21.20;99.90
21244;DHT22;10780;50.942;4.028;2022-10-16T15:23:34;21.10;99.90
21244;DHT22;10780;50.942;4.028;2022-10-16T15:26:00;21.10;99.90
21244;DHT22;10780;50.942;4.028;2022-10-16T15:28:26;21.00;99.90
21244;DHT22;10780;50.942;4.028;2022-10-16T15:30:53;21.10;99.90
21244;DHT22;10780;50.942;4.028;2022-10-16T15:33:22;21.10;99.90
21244;DHT22;10780;50.942;4.028;2022-10-16T15:35:52;21.10;99.90
21244;DHT22;10780;50.942;4.028;2022-10-16T15:38:19;20.90;99.90
21244;DHT22;10780;50.942;4.028;2022-10-16T15:40:47;20.90;99.90
21244;DHT22;10780;50.942;4.028;2022-10-16T15:43:13;20.80;99.90
21244;DHT22;10780;50.942;4.028;2022-10-16T15:45:39;20.70;99.90
21244;DHT22;10780;50.942;4.028;2022-10-16T15:48:04;20.40;99.90
21244;DHT22;10780;50.942;4.028;2022-10-16T15:50:31;20.20;99.90
21244;DHT22;10780;50.942;4.028;2022-10-16T15:52:57;20.10;99.90
21244;DHT22;10780;50.942;4.028;2022-10-16T15:55:23;20.10;99.90
21244;DHT22;10780;50.942;4.028;2022-10-16T15:57:49;20.10;99.90
21244;DHT22;10780;50.942;4.028;2022-10-16T16:00:17;20.10;99.90
21244;DHT22;10780;50.942;4.028;2022-10-16T16:02:50;20.10;99.90
21244;DHT22;10780;50.942;4.028;2022-10-16T16:05:17;20.00;99.90
21244;DHT22;10780;50.942;4.028;2022-10-16T16:07:43;20.00;99.90
21244;DHT22;10780;50.942;4.028;2022-10-16T16:10:10;20.00;99.90
21244;DHT22;10780;50.942;4.028;2022-10-16T16:12:37;19.80;99.90
21244;DHT22;10780;50.942;4.028;2022-10-16T16:15:04;19.80;99.90
21244;DHT22;10780;50.942;4.028;2022-10-16T16:17:32;19.70;99.90
21244;DHT22;10780;50.942;4.028;2022-10-16T16:19:57;19.70;99.90
21244;DHT22;10780;50.942;4.028;2022-10-16T16:22:23;19.50;99.90
21244;DHT22;10780;50.942;4.028;2022-10-16T16:24:49;19.40;99.90
21244;DHT22;10780;50.942;4.028;2022-10-16T16:27:14;19.30;99.90
21244;DHT22;10780;50.942;4.028;2022-10-16T16:29:40;19.30;99.90
21244;DHT22;10780;50.942;4.028;2022-10-16T16:32:06;19.20;99.90
21244;DHT22;10780;50.942;4.028;2022-10-16T16:34:31;19.10;99.90
21244;DHT22;10780;50.942;4.028;2022-10-16T16:36:57;19.20;99.90
21244;DHT22;10780;50.942;4.028;2022-10-16T16:39:23;19.10;99.90
21244;DHT22;10780;50.942;4.028;2022-10-16T16:41:49;19.10;99.90
21244;DHT22;10780;50.942;4.028;2022-10-16T16:44:15;19.10;99.90
21244;DHT22;10780;50.942;4.028;2022-10-16T16:46:42;19.10;99.90
21244;DHT22;10780;50.942;4.028;2022-10-16T16:49:10;19.30;99.90
21244;DHT22;10780;50.942;4.028;2022-10-16T16:51:36;19.40;99.90
21244;DHT22;10780;50.942;4.028;2022-10-16T16:54:02;19.30;99.90
21244;DHT22;10780;50.942;4.028;2022-10-16T16:56:28;19.20;99.90
21244;DHT22;10780;50.942;4.028;2022-10-16T16:58:55;19.10;99.90
21244;DHT22;10780;50.942;4.028;2022-10-16T17:01:23;19.20;99.90
21244;DHT22;10780;50.942;4.028;2022-10-16T17:03:50;19.20;99.90
21244;DHT22;10780;50.942;4.028;2022-10-16T17:06:18;19.30;99.90
21244;DHT22;10780;50.942;4.028;2022-10-16T17:08:44;19.30;99.90
21244;DHT22;10780;50.942;4.028;2022-10-16T17:11:20;19.40;99.90
21244;DHT22;10780;50.942;4.028;2022-10-16T17:13:48;19.40;99.90
21244;DHT22;10780;50.942;4.028;2022-10-16T17:16:14;19.40;99.90
21244;DHT22;10780;50.942;4.028;2022-10-16T17:18:39;19.40;99.90
21244;DHT22;10780;50.942;4.028;2022-10-16T17:21:07;19.30;99.90
21244;DHT22;10780;50.942;4.028;2022-10-16T17:23:35;19.30;99.90
21244;DHT22;10780;50.942;4.028;2022-10-16T17:26:13;19.20;99.90
21244;DHT22;10780;50.942;4.028;2022-10-16T17:28:40;19.10;99.90
21244;DHT22;10780;50.942;4.028;2022-10-16T17:31:10;19.00;99.90
21244;DHT22;10780;50.942;4.028;2022-10-16T17:33:36;18.90;99.90
21244;DHT22;10780;50.942;4.028;2022-10-16T17:36:02;18.80;99.90
21244;DHT22;10780;50.942;4.028;2022-10-16T17:38:28;18.80;99.90
21244;DHT22;10780;50.942;4.028;2022-10-16T17:40:54;18.80;99.90
21244;DHT22;10780;50.942;4.028;2022-10-16T17:43:19;18.80;99.90
21244;DHT22;10780;50.942;4.028;2022-10-16T17:45:45;18.80;99.90
21244;DHT22;10780;50.942;4.028;2022-10-16T17:48:11;18.80;99.90